Terminal Aerodrome Forecast
Issued by NWS

Home | Current Version | Previous Version | Graphics & Text | Print | Product List | Glossary On
Versions: 1 2 3 4 5 6 7 8 9 10 11 12 13 14 15 16 17 18 19 20 21 22 23 24 25
000
FTUS43 KBIS 071120
TAFDIK
TAF
KDIK 071120Z 0712/0812 29025G31KT 3SM BLSN BKN050
     FM071700 30022G31KT 4SM BLSN BKN050
     FM072100 29024G34KT P6SM BKN035
     FM080000 30018KT P6SM BKN025=

USA.gov is the U.S. government's official web portal to all federal, state and local government web resources and services.